sensor_id;sensor_type;location;lat;lon;timestamp;pressure;altitude;pressure_sealevel;temperature;humidity
10261;BME280;5175;42.606;23.388;2024-03-23T00:53:37;93790.72;;;2.08;96.05
10261;BME280;5175;42.606;23.388;2024-03-23T00:56:03;93791.91;;;1.82;98.02
10261;BME280;5175;42.606;23.388;2024-03-23T00:58:30;93775.53;;;1.69;99.66
10261;BME280;5175;42.606;23.388;2024-03-23T01:00:56;93788.72;;;1.80;100.00
10261;BME280;5175;42.606;23.388;2024-03-23T01:03:22;93780.31;;;2.13;96.73
10261;BME280;5175;42.606;23.388;2024-03-23T01:05:48;93783.75;;;2.02;91.55
10261;BME280;5175;42.606;23.388;2024-03-23T01:08:15;93781.94;;;2.26;89.73
10261;BME280;5175;42.606;23.388;2024-03-23T01:10:42;93789.16;;;2.30;88.13
10261;BME280;5175;42.606;23.388;2024-03-23T01:13:08;93792.00;;;2.29;88.98
10261;BME280;5175;42.606;23.388;2024-03-23T01:15:34;93779.66;;;2.18;92.12
10261;BME280;5175;42.606;23.388;2024-03-23T01:18:01;93768.97;;;2.01;93.03
10261;BME280;5175;42.606;23.388;2024-03-23T01:20:27;93792.88;;;2.11;92.93
10261;BME280;5175;42.606;23.388;2024-03-23T01:22:54;93779.06;;;2.16;92.05
10261;BME280;5175;42.606;23.388;2024-03-23T01:25:19;93773.91;;;2.09;90.75
10261;BME280;5175;42.606;23.388;2024-03-23T01:27:47;93773.91;;;2.09;89.09
10261;BME280;5175;42.606;23.388;2024-03-23T01:30:13;93782.47;;;2.05;87.37
10261;BME280;5175;42.606;23.388;2024-03-23T01:32:41;93776.31;;;2.22;84.85
10261;BME280;5175;42.606;23.388;2024-03-23T01:35:08;93778.03;;;2.17;84.44
10261;BME280;5175;42.606;23.388;2024-03-23T01:37:34;93775.63;;;2.27;84.25
10261;BME280;5175;42.606;23.388;2024-03-23T01:40:00;93774.50;;;2.23;84.64
10261;BME280;5175;42.606;23.388;2024-03-23T01:42:29;93785.72;;;2.30;85.49
10261;BME280;5175;42.606;23.388;2024-03-23T01:44:56;93772.53;;;2.07;86.13
10261;BME280;5175;42.606;23.388;2024-03-23T01:47:23;93776.78;;;2.19;84.50
10261;BME280;5175;42.606;23.388;2024-03-23T01:49:49;93773.56;;;2.29;83.26
10261;BME280;5175;42.606;23.388;2024-03-23T01:52:16;93780.81;;;2.33;81.80
10261;BME280;5175;42.606;23.388;2024-03-23T01:54:43;93778.63;;;2.42;80.37
10261;BME280;5175;42.606;23.388;2024-03-23T01:57:11;93785.94;;;2.40;80.68
10261;BME280;5175;42.606;23.388;2024-03-23T01:59:38;93779.56;;;2.36;82.03
10261;BME280;5175;42.606;23.388;2024-03-23T02:02:06;93788.47;;;2.23;84.75
10261;BME280;5175;42.606;23.388;2024-03-23T02:04:32;93784.91;;;2.29;81.48
10261;BME280;5175;42.606;23.388;2024-03-23T02:06:59;93787.69;;;2.46;80.30
10261;BME280;5175;42.606;23.388;2024-03-23T02:09:25;93786.06;;;2.45;77.60
10261;BME280;5175;42.606;23.388;2024-03-23T02:11:51;93796.25;;;2.53;75.26
10261;BME280;5175;42.606;23.388;2024-03-23T02:14:17;93796.38;;;2.58;74.73
10261;BME280;5175;42.606;23.388;2024-03-23T02:16:44;93805.75;;;2.66;75.13
10261;BME280;5175;42.606;23.388;2024-03-23T02:19:11;93787.22;;;2.49;75.78
10261;BME280;5175;42.606;23.388;2024-03-23T02:21:37;93745.84;;;2.03;76.02
10261;BME280;5175;42.606;23.388;2024-03-23T02:24:05;93798.53;;;2.38;76.10
10261;BME280;5175;42.606;23.388;2024-03-23T02:26:32;93787.13;;;1.91;82.74
10261;BME280;5175;42.606;23.388;2024-03-23T02:28:57;93783.50;;;1.92;83.06
10261;BME280;5175;42.606;23.388;2024-03-23T02:31:24;93784.09;;;1.64;87.87
10261;BME280;5175;42.606;23.388;2024-03-23T02:33:50;93783.88;;;1.66;89.30
10261;BME280;5175;42.606;23.388;2024-03-23T02:36:17;93783.19;;;1.70;87.61
10261;BME280;5175;42.606;23.388;2024-03-23T02:38:42;93787.06;;;1.68;87.21
10261;BME280;5175;42.606;23.388;2024-03-23T02:41:10;93787.44;;;1.71;87.56
10261;BME280;5175;42.606;23.388;2024-03-23T02:43:36;93785.19;;;1.57;88.99
10261;BME280;5175;42.606;23.388;2024-03-23T02:46:03;93785.78;;;1.59;88.65
10261;BME280;5175;42.606;23.388;2024-03-23T02:48:29;93790.84;;;1.42;89.65
10261;BME280;5175;42.606;23.388;2024-03-23T02:50:56;93781.03;;;1.38;89.88
10261;BME280;5175;42.606;23.388;2024-03-23T02:53:22;93784.69;;;1.18;91.72
10261;BME280;5175;42.606;23.388;2024-03-23T02:55:48;93780.47;;;1.47;90.75
10261;BME280;5175;42.606;23.388;2024-03-23T02:58:16;93786.03;;;1.39;89.33
10261;BME280;5175;42.606;23.388;2024-03-23T03:00:42;93770.78;;;1.18;89.21
10261;BME280;5175;42.606;23.388;2024-03-23T03:03:08;93760.88;;;1.32;88.04
10261;BME280;5175;42.606;23.388;2024-03-23T03:05:35;93771.25;;;1.26;90.05
10261;BME280;5175;42.606;23.388;2024-03-23T03:08:00;93769.81;;;1.12;89.51
10261;BME280;5175;42.606;23.388;2024-03-23T03:10:27;93773.06;;;1.26;88.04
10261;BME280;5175;42.606;23.388;2024-03-23T03:12:53;93774.81;;;1.32;86.37
10261;BME280;5175;42.606;23.388;2024-03-23T03:15:21;93774.50;;;1.40;86.93
10261;BME280;5175;42.606;23.388;2024-03-23T03:17:46;93768.03;;;1.24;87.82
10261;BME280;5175;42.606;23.388;2024-03-23T03:20:13;93775.75;;;1.38;87.85
10261;BME280;5175;42.606;23.388;2024-03-23T03:22:41;93775.50;;;1.27;87.40
10261;BME280;5175;42.606;23.388;2024-03-23T03:25:08;93781.25;;;1.36;86.33
10261;BME280;5175;42.606;23.388;2024-03-23T03:27:33;93777.06;;;1.28;85.86
10261;BME280;5175;42.606;23.388;2024-03-23T03:30:00;93781.56;;;1.58;84.60
10261;BME280;5175;42.606;23.388;2024-03-23T03:32:29;93783.59;;;1.56;84.80
10261;BME280;5175;42.606;23.388;2024-03-23T03:34:56;93788.72;;;1.51;83.84
10261;BME280;5175;42.606;23.388;2024-03-23T03:37:21;93790.28;;;1.70;83.52
10261;BME280;5175;42.606;23.388;2024-03-23T03:39:48;93787.06;;;1.68;82.72
10261;BME280;5175;42.606;23.388;2024-03-23T03:42:14;93779.72;;;1.58;84.33
10261;BME280;5175;42.606;23.388;2024-03-23T03:44:41;93785.72;;;1.47;86.44
10261;BME280;5175;42.606;23.388;2024-03-23T03:47:07;93785.56;;;1.31;89.67
10261;BME280;5175;42.606;23.388;2024-03-23T03:49:35;93779.84;;;1.34;91.13
10261;BME280;5175;42.606;23.388;2024-03-23T03:52:01;93773.75;;;1.21;91.49
10261;BME280;5175;42.606;23.388;2024-03-23T03:54:27;93781.19;;;1.06;92.69
10261;BME280;5175;42.606;23.388;2024-03-23T03:56:53;93779.16;;;0.90;94.20
10261;BME280;5175;42.606;23.388;2024-03-23T03:59:20;93787.31;;;1.00;93.25
10261;BME280;5175;42.606;23.388;2024-03-23T04:01:46;93782.00;;;1.07;91.64
10261;BME280;5175;42.606;23.388;2024-03-23T04:04:12;93779.00;;;1.21;89.47
10261;BME280;5175;42.606;23.388;2024-03-23T04:06:40;93772.50;;;1.24;87.85
10261;BME280;5175;42.606;23.388;2024-03-23T04:09:07;93777.81;;;1.36;86.63
10261;BME280;5175;42.606;23.388;2024-03-23T04:11:33;93777.16;;;1.40;86.87
10261;BME280;5175;42.606;23.388;2024-03-23T04:13:59;93754.78;;;1.19;85.29
10261;BME280;5175;42.606;23.388;2024-03-23T04:16:27;93784.16;;;1.46;85.04
10261;BME280;5175;42.606;23.388;2024-03-23T04:18:54;93787.28;;;1.37;86.11
10261;BME280;5175;42.606;23.388;2024-03-23T04:21:19;93782.56;;;1.27;86.96
10261;BME280;5175;42.606;23.388;2024-03-23T04:23:47;93782.34;;;1.28;86.00
10261;BME280;5175;42.606;23.388;2024-03-23T04:26:13;93776.44;;;1.33;86.66
10261;BME280;5175;42.606;23.388;2024-03-23T04:28:40;93786.38;;;1.13;87.35
10261;BME280;5175;42.606;23.388;2024-03-23T04:31:06;93775.69;;;1.26;87.46
10261;BME280;5175;42.606;23.388;2024-03-23T04:33:32;93784.78;;;1.42;87.57
10261;BME280;5175;42.606;23.388;2024-03-23T04:35:58;93775.81;;;1.31;87.64
10261;BME280;5175;42.606;23.388;2024-03-23T04:38:25;93790.31;;;1.52;86.31
10261;BME280;5175;42.606;23.388;2024-03-23T04:40:57;93800.97;;;1.57;86.74
10261;BME280;5175;42.606;23.388;2024-03-23T04:43:23;93805.72;;;1.66;84.08
10261;BME280;5175;42.606;23.388;2024-03-23T04:45:50;93794.81;;;1.63;85.16
10261;BME280;5175;42.606;23.388;2024-03-23T04:48:20;93807.34;;;1.79;85.06
10261;BME280;5175;42.606;23.388;2024-03-23T04:50:47;93798.97;;;1.70;86.45
10261;BME280;5175;42.606;23.388;2024-03-23T04:53:14;93799.53;;;1.72;86.33
10261;BME280;5175;42.606;23.388;2024-03-23T04:55:41;93803.53;;;1.75;87.29
10261;BME280;5175;42.606;23.388;2024-03-23T04:58:09;93807.88;;;1.40;89.64
10261;BME280;5175;42.606;23.388;2024-03-23T05:00:35;93806.78;;;1.29;91.02
10261;BME280;5175;42.606;23.388;2024-03-23T05:03:01;93793.59;;;1.36;91.77
10261;BME280;5175;42.606;23.388;2024-03-23T05:05:27;93799.72;;;1.59;91.20
10261;BME280;5175;42.606;23.388;2024-03-23T05:07:54;93792.91;;;1.70;90.47
10261;BME280;5175;42.606;23.388;2024-03-23T05:10:19;93790.38;;;1.63;93.00
10261;BME280;5175;42.606;23.388;2024-03-23T05:12:46;93799.06;;;1.64;94.90
10261;BME280;5175;42.606;23.388;2024-03-23T05:15:13;93785.97;;;1.46;99.67
10261;BME280;5175;42.606;23.388;2024-03-23T05:17:40;93793.84;;;1.46;100.00
10261;BME280;5175;42.606;23.388;2024-03-23T05:20:06;93790.25;;;1.58;100.00
10261;BME280;5175;42.606;23.388;2024-03-23T05:22:35;93786.31;;;1.79;100.00
10261;BME280;5175;42.606;23.388;2024-03-23T05:25:01;93789.94;;;1.66;100.00
10261;BME280;5175;42.606;23.388;2024-03-23T05:27:30;93790.50;;;1.68;100.00
10261;BME280;5175;42.606;23.388;2024-03-23T05:29:55;93794.13;;;1.97;100.00
10261;BME280;5175;42.606;23.388;2024-03-23T05:32:23;93785.97;;;2.28;100.00
10261;BME280;5175;42.606;23.388;2024-03-23T05:34:49;93784.00;;;2.35;98.98
10261;BME280;5175;42.606;23.388;2024-03-23T05:37:21;93773.03;;;2.50;99.41
10261;BME280;5175;42.606;23.388;2024-03-23T05:39:46;93784.94;;;2.87;95.44
10261;BME280;5175;42.606;23.388;2024-03-23T05:42:15;93771.03;;;2.92;94.66
10261;BME280;5175;42.606;23.388;2024-03-23T05:44:41;93785.13;;;2.86;96.10
10261;BME280;5175;42.606;23.388;2024-03-23T05:47:09;93774.50;;;2.81;97.58
10261;BME280;5175;42.606;23.388;2024-03-23T05:49:36;93768.31;;;2.75;98.34
10261;BME280;5175;42.606;23.388;2024-03-23T05:52:03;93780.53;;;2.93;98.05
10261;BME280;5175;42.606;23.388;2024-03-23T05:54:29;93780.50;;;3.16;96.99
10261;BME280;5175;42.606;23.388;2024-03-23T05:56:56;93769.97;;;3.44;94.61
10261;BME280;5175;42.606;23.388;2024-03-23T05:59:21;93790.22;;;3.67;94.61
10261;BME280;5175;42.606;23.388;2024-03-23T06:01:48;93786.09;;;3.88;92.89
10261;BME280;5175;42.606;23.388;2024-03-23T06:04:14;93770.38;;;3.93;91.91
10261;BME280;5175;42.606;23.388;2024-03-23T06:06:42;93784.16;;;4.28;90.31
10261;BME280;5175;42.606;23.388;2024-03-23T06:09:08;93779.19;;;4.48;89.41
10261;BME280;5175;42.606;23.388;2024-03-23T06:11:35;93786.13;;;4.71;88.04
10261;BME280;5175;42.606;23.388;2024-03-23T06:14:00;93788.75;;;4.87;86.75
10261;BME280;5175;42.606;23.388;2024-03-23T06:16:27;93788.16;;;5.02;86.66
10261;BME280;5175;42.606;23.388;2024-03-23T06:18:53;93788.19;;;5.24;84.60
10261;BME280;5175;42.606;23.388;2024-03-23T06:21:21;93786.47;;;5.34;84.39
10261;BME280;5175;42.606;23.388;2024-03-23T06:23:51;93783.69;;;5.46;83.10
10261;BME280;5175;42.606;23.388;2024-03-23T06:26:18;93784.38;;;5.58;83.16
10261;BME280;5175;42.606;23.388;2024-03-23T06:28:44;93790.22;;;5.60;82.28
10261;BME280;5175;42.606;23.388;2024-03-23T06:31:11;93787.38;;;5.88;80.45
10261;BME280;5175;42.606;23.388;2024-03-23T06:33:37;93789.72;;;6.11;77.63
10261;BME280;5175;42.606;23.388;2024-03-23T06:36:04;93797.75;;;6.21;77.17
10261;BME280;5175;42.606;23.388;2024-03-23T06:38:30;93798.25;;;6.45;75.93
10261;BME280;5175;42.606;23.388;2024-03-23T06:40:59;93802.84;;;6.55;75.98
10261;BME280;5175;42.606;23.388;2024-03-23T06:43:27;93791.72;;;6.58;76.16
10261;BME280;5175;42.606;23.388;2024-03-23T06:45:54;93790.28;;;6.77;75.44
10261;BME280;5175;42.606;23.388;2024-03-23T06:48:20;93795.31;;;6.78;75.76
10261;BME280;5175;42.606;23.388;2024-03-23T06:50:47;93799.47;;;7.06;74.11
10261;BME280;5175;42.606;23.388;2024-03-23T06:53:14;93798.00;;;7.20;74.06
10261;BME280;5175;42.606;23.388;2024-03-23T06:55:41;93791.72;;;7.36;71.55
10261;BME280;5175;42.606;23.388;2024-03-23T06:58:09;93797.91;;;7.57;71.15
10261;BME280;5175;42.606;23.388;2024-03-23T07:00:35;93798.22;;;7.71;69.91
10261;BME280;5175;42.606;23.388;2024-03-23T07:03:02;93795.66;;;7.96;68.19
10261;BME280;5175;42.606;23.388;2024-03-23T07:05:29;93795.72;;;8.16;65.82
10261;BME280;5175;42.606;23.388;2024-03-23T07:07:56;93797.84;;;8.24;64.57
10261;BME280;5175;42.606;23.388;2024-03-23T07:10:21;93791.50;;;8.40;61.88
10261;BME280;5175;42.606;23.388;2024-03-23T07:12:48;93790.47;;;8.61;61.84
10261;BME280;5175;42.606;23.388;2024-03-23T07:15:15;93793.13;;;8.71;60.32
10261;BME280;5175;42.606;23.388;2024-03-23T07:17:42;93792.31;;;8.86;59.48
10261;BME280;5175;42.606;23.388;2024-03-23T07:20:09;93788.34;;;8.78;60.27
10261;BME280;5175;42.606;23.388;2024-03-23T07:22:36;93780.34;;;8.94;59.79
10261;BME280;5175;42.606;23.388;2024-03-23T07:25:02;93789.66;;;9.06;59.98
10261;BME280;5175;42.606;23.388;2024-03-23T07:27:29;93779.00;;;9.16;59.37
10261;BME280;5175;42.606;23.388;2024-03-23T07:29:55;93782.69;;;9.20;59.77
10261;BME280;5175;42.606;23.388;2024-03-23T07:32:23;93770.66;;;9.38;59.76
10261;BME280;5175;42.606;23.388;2024-03-23T07:34:49;93781.25;;;9.58;58.83
10261;BME280;5175;42.606;23.388;2024-03-23T07:37:16;93773.19;;;9.73;57.57
10261;BME280;5175;42.606;23.388;2024-03-23T07:39:41;93775.28;;;9.86;57.17
10261;BME280;5175;42.606;23.388;2024-03-23T07:42:08;93776.56;;;9.94;56.61
10261;BME280;5175;42.606;23.388;2024-03-23T07:44:34;93779.19;;;10.09;55.07
10261;BME280;5175;42.606;23.388;2024-03-23T07:47:00;93778.66;;;10.02;54.71
10261;BME280;5175;42.606;23.388;2024-03-23T07:49:27;93773.06;;;10.08;54.79
10261;BME280;5175;42.606;23.388;2024-03-23T07:51:55;93766.38;;;10.16;55.49
10261;BME280;5175;42.606;23.388;2024-03-23T07:54:20;93763.66;;;10.26;56.04
10261;BME280;5175;42.606;23.388;2024-03-23T07:56:47;93770.22;;;10.39;55.62
10261;BME280;5175;42.606;23.388;2024-03-23T07:59:13;93768.03;;;10.46;54.75
10261;BME280;5175;42.606;23.388;2024-03-23T08:01:40;93769.00;;;10.60;54.46
10261;BME280;5175;42.606;23.388;2024-03-23T08:04:05;93771.22;;;10.82;54.41
10261;BME280;5175;42.606;23.388;2024-03-23T08:06:34;93772.13;;;11.01;53.28
10261;BME280;5175;42.606;23.388;2024-03-23T08:08:59;93766.38;;;11.17;52.72
10261;BME280;5175;42.606;23.388;2024-03-23T08:11:26;93776.16;;;11.27;52.21
10261;BME280;5175;42.606;23.388;2024-03-23T08:13:53;93765.94;;;11.34;51.42
10261;BME280;5175;42.606;23.388;2024-03-23T08:16:20;93771.78;;;11.36;51.91
10261;BME280;5175;42.606;23.388;2024-03-23T08:18:46;93770.25;;;11.54;51.55
10261;BME280;5175;42.606;23.388;2024-03-23T08:21:13;93770.19;;;11.59;50.75
10261;BME280;5175;42.606;23.388;2024-03-23T08:23:40;93770.38;;;11.67;50.84
10261;BME280;5175;42.606;23.388;2024-03-23T08:26:08;93772.72;;;11.74;51.01
10261;BME280;5175;42.606;23.388;2024-03-23T08:28:35;93754.69;;;11.84;50.40
10261;BME280;5175;42.606;23.388;2024-03-23T08:31:03;93760.16;;;11.98;50.67
10261;BME280;5175;42.606;23.388;2024-03-23T08:33:31;93762.31;;;12.15;49.87
10261;BME280;5175;42.606;23.388;2024-03-23T08:35:58;93758.16;;;12.27;49.21
10261;BME280;5175;42.606;23.388;2024-03-23T08:38:25;93764.13;;;12.38;48.80
10261;BME280;5175;42.606;23.388;2024-03-23T08:40:57;93746.84;;;12.30;49.13
10261;BME280;5175;42.606;23.388;2024-03-23T08:43:23;93754.88;;;12.12;49.40
10261;BME280;5175;42.606;23.388;2024-03-23T08:45:50;93755.25;;;12.42;48.83
10261;BME280;5175;42.606;23.388;2024-03-23T08:48:16;93752.59;;;12.75;48.21
10261;BME280;5175;42.606;23.388;2024-03-23T08:50:43;93745.22;;;12.85;47.80
10261;BME280;5175;42.606;23.388;2024-03-23T08:53:09;93739.47;;;12.92;47.00
10261;BME280;5175;42.606;23.388;2024-03-23T08:55:36;93726.78;;;13.16;46.58
10261;BME280;5175;42.606;23.388;2024-03-23T08:58:04;93722.91;;;13.36;45.81
10261;BME280;5175;42.606;23.388;2024-03-23T09:00:33;93721.53;;;13.38;45.81
10261;BME280;5175;42.606;23.388;2024-03-23T09:02:59;93722.16;;;13.35;45.64
10261;BME280;5175;42.606;23.388;2024-03-23T09:05:27;93719.03;;;13.14;45.04
10261;BME280;5175;42.606;23.388;2024-03-23T09:07:54;93717.38;;;13.59;45.65
10261;BME280;5175;42.606;23.388;2024-03-23T09:10:20;93719.56;;;13.57;44.43
10261;BME280;5175;42.606;23.388;2024-03-23T09:12:47;93709.72;;;13.80;44.07
10261;BME280;5175;42.606;23.388;2024-03-23T09:15:15;93712.00;;;13.87;44.13
10261;BME280;5175;42.606;23.388;2024-03-23T09:17:41;93709.94;;;13.84;45.30
10261;BME280;5175;42.606;23.388;2024-03-23T09:20:09;93680.22;;;13.66;44.32
10261;BME280;5175;42.606;23.388;2024-03-23T09:22:35;93694.31;;;13.72;44.71
10261;BME280;5175;42.606;23.388;2024-03-23T09:25:02;93687.09;;;13.59;46.95
10261;BME280;5175;42.606;23.388;2024-03-23T09:27:27;93681.50;;;13.82;46.45
10261;BME280;5175;42.606;23.388;2024-03-23T09:29:54;93684.56;;;14.03;45.47
10261;BME280;5175;42.606;23.388;2024-03-23T09:32:21;93678.44;;;13.75;45.53
10261;BME280;5175;42.606;23.388;2024-03-23T09:34:48;93676.97;;;14.19;43.92
10261;BME280;5175;42.606;23.388;2024-03-23T09:37:14;93667.25;;;14.45;43.91
10261;BME280;5175;42.606;23.388;2024-03-23T09:39:40;93670.06;;;14.62;43.97
10261;BME280;5175;42.606;23.388;2024-03-23T09:42:07;93671.94;;;14.84;43.97
10261;BME280;5175;42.606;23.388;2024-03-23T09:44:35;93654.13;;;14.66;43.90
10261;BME280;5175;42.606;23.388;2024-03-23T09:47:01;93659.25;;;14.76;42.86
10261;BME280;5175;42.606;23.388;2024-03-23T09:49:29;93651.59;;;14.91;41.36
10261;BME280;5175;42.606;23.388;2024-03-23T09:51:56;93652.84;;;14.85;40.86
10261;BME280;5175;42.606;23.388;2024-03-23T09:54:22;93647.94;;;14.87;43.16
10261;BME280;5175;42.606;23.388;2024-03-23T09:56:48;93651.31;;;15.32;43.25
10261;BME280;5175;42.606;23.388;2024-03-23T09:59:15;93627.31;;;15.44;42.96
10261;BME280;5175;42.606;23.388;2024-03-23T10:01:41;93639.59;;;15.68;42.89
10261;BME280;5175;42.606;23.388;2024-03-23T10:04:08;93638.94;;;15.53;41.36
10261;BME280;5175;42.606;23.388;2024-03-23T10:06:35;93641.22;;;15.38;43.44
10261;BME280;5175;42.606;23.388;2024-03-23T10:09:02;93635.47;;;15.22;42.42
10261;BME280;5175;42.606;23.388;2024-03-23T10:11:42;93627.72;;;15.60;42.62
10261;BME280;5175;42.606;23.388;2024-03-23T10:14:28;93625.19;;;15.72;41.59
10261;BME280;5175;42.606;23.388;2024-03-23T10:16:54;93627.09;;;15.63;41.89
10261;BME280;5175;42.606;23.388;2024-03-23T10:19:30;93626.03;;;15.81;40.89
10261;BME280;5175;42.606;23.388;2024-03-23T10:21:58;93615.56;;;15.71;42.87
10261;BME280;5175;42.606;23.388;2024-03-23T10:24:24;93613.69;;;15.97;39.76
10261;BME280;5175;42.606;23.388;2024-03-23T10:26:56;93603.88;;;15.93;39.66
10261;BME280;5175;42.606;23.388;2024-03-23T10:29:23;93611.16;;;16.01;40.32
10261;BME280;5175;42.606;23.388;2024-03-23T10:31:48;93608.47;;;16.01;39.50
10261;BME280;5175;42.606;23.388;2024-03-23T10:34:15;93602.16;;;16.22;38.71
10261;BME280;5175;42.606;23.388;2024-03-23T10:36:41;93600.69;;;16.42;39.87
10261;BME280;5175;42.606;23.388;2024-03-23T10:39:10;93595.16;;;16.39;37.96
10261;BME280;5175;42.606;23.388;2024-03-23T10:41:37;93584.72;;;16.03;40.06
10261;BME280;5175;42.606;23.388;2024-03-23T10:44:06;93577.91;;;16.48;39.55
10261;BME280;5175;42.606;23.388;2024-03-23T10:46:32;93584.06;;;16.49;38.62
10261;BME280;5175;42.606;23.388;2024-03-23T10:48:58;93569.81;;;16.40;38.70
10261;BME280;5175;42.606;23.388;2024-03-23T10:51:24;93574.41;;;16.48;39.82
10261;BME280;5175;42.606;23.388;2024-03-23T10:53:53;93559.22;;;16.43;38.80
10261;BME280;5175;42.606;23.388;2024-03-23T10:56:22;93564.50;;;16.86;38.73
10261;BME280;5175;42.606;23.388;2024-03-23T10:58:49;93550.31;;;17.06;38.94
10261;BME280;5175;42.606;23.388;2024-03-23T11:01:16;93544.97;;;17.35;39.53
10261;BME280;5175;42.606;23.388;2024-03-23T11:03:45;93538.16;;;17.29;37.59
10261;BME280;5175;42.606;23.388;2024-03-23T11:06:35;93533.84;;;17.37;37.28
10261;BME280;5175;42.606;23.388;2024-03-23T11:09:02;93536.78;;;17.52;37.32
10261;BME280;5175;42.606;23.388;2024-03-23T11:11:29;93529.97;;;17.46;35.86
10261;BME280;5175;42.606;23.388;2024-03-23T11:13:59;93529.94;;;17.55;36.39
10261;BME280;5175;42.606;23.388;2024-03-23T11:16:26;93517.41;;;17.50;36.82
10261;BME280;5175;42.606;23.388;2024-03-23T11:19:34;93511.69;;;17.52;36.87
10261;BME280;5175;42.606;23.388;2024-03-23T11:22:00;93505.22;;;17.74;36.44
10261;BME280;5175;42.606;23.388;2024-03-23T11:24:28;93503.97;;;17.92;35.86
10261;BME280;5175;42.606;23.388;2024-03-23T11:26:55;93503.97;;;17.92;35.51
10261;BME280;5175;42.606;23.388;2024-03-23T11:29:26;93498.78;;;18.20;37.43
10261;BME280;5175;42.606;23.388;2024-03-23T11:31:52;93496.06;;;17.87;34.25
10261;BME280;5175;42.606;23.388;2024-03-23T11:34:20;93497.38;;;17.81;34.37
10261;BME280;5175;42.606;23.388;2024-03-23T11:36:46;93492.72;;;17.69;34.47
10261;BME280;5175;42.606;23.388;2024-03-23T11:39:14;93464.38;;;17.96;35.75
10261;BME280;5175;42.606;23.388;2024-03-23T11:41:48;93478.47;;;18.34;35.34
10261;BME280;5175;42.606;23.388;2024-03-23T11:44:17;93474.28;;;18.25;34.60
10261;BME280;5175;42.606;23.388;2024-03-23T11:46:43;93469.88;;;18.20;34.46
10261;BME280;5175;42.606;23.388;2024-03-23T11:49:20;93464.59;;;18.24;34.62
10261;BME280;5175;42.606;23.388;2024-03-23T11:51:47;93455.16;;;18.30;37.15
10261;BME280;5175;42.606;23.388;2024-03-23T11:54:14;93449.38;;;18.19;35.22
10261;BME280;5175;42.606;23.388;2024-03-23T11:56:40;93443.75;;;18.57;34.50
10261;BME280;5175;42.606;23.388;2024-03-23T11:59:07;93445.50;;;18.41;33.95
10261;BME280;5175;42.606;23.388;2024-03-23T12:01:34;93440.16;;;18.53;34.72
10261;BME280;5175;42.606;23.388;2024-03-23T12:04:01;93431.59;;;18.75;34.60
10261;BME280;5175;42.606;23.388;2024-03-23T12:06:27;93428.59;;;18.89;34.82
10261;BME280;5175;42.606;23.388;2024-03-23T12:09:05;93425.28;;;19.19;34.07
10261;BME280;5175;42.606;23.388;2024-03-23T12:11:31;93418.91;;;19.00;33.98
10261;BME280;5175;42.606;23.388;2024-03-23T12:13:59;93416.72;;;19.29;33.62
10261;BME280;5175;42.606;23.388;2024-03-23T12:16:25;93410.84;;;19.27;32.98
10261;BME280;5175;42.606;23.388;2024-03-23T12:19:05;93406.47;;;19.23;34.44
10261;BME280;5175;42.606;23.388;2024-03-23T12:21:31;93400.38;;;19.38;33.98
10261;BME280;5175;42.606;23.388;2024-03-23T12:23:57;93406.72;;;19.06;33.02
10261;BME280;5175;42.606;23.388;2024-03-23T12:26:24;93409.06;;;19.19;33.77
10261;BME280;5175;42.606;23.388;2024-03-23T12:28:50;93404.22;;;19.37;32.00
10261;BME280;5175;42.606;23.388;2024-03-23T12:31:16;93402.25;;;19.62;32.81
10261;BME280;5175;42.606;23.388;2024-03-23T12:33:43;93398.31;;;19.35;32.04
10261;BME280;5175;42.606;23.388;2024-03-23T12:36:11;93389.09;;;19.36;32.64
10261;BME280;5175;42.606;23.388;2024-03-23T12:38:38;93391.13;;;19.51;31.14
10261;BME280;5175;42.606;23.388;2024-03-23T12:41:04;93386.38;;;19.48;34.10
10261;BME280;5175;42.606;23.388;2024-03-23T12:43:31;93376.13;;;19.42;33.36
10261;BME280;5175;42.606;23.388;2024-03-23T12:45:57;93371.00;;;19.64;35.37
10261;BME280;5175;42.606;23.388;2024-03-23T12:48:23;93370.34;;;19.83;33.74
10261;BME280;5175;42.606;23.388;2024-03-23T12:50:54;93370.63;;;19.93;32.98
10261;BME280;5175;42.606;23.388;2024-03-23T12:53:22;93354.56;;;20.28;34.28
10261;BME280;5175;42.606;23.388;2024-03-23T12:55:48;93363.47;;;20.44;32.67
10261;BME280;5175;42.606;23.388;2024-03-23T12:58:14;93356.38;;;20.40;31.66
10261;BME280;5175;42.606;23.388;2024-03-23T13:00:40;93349.22;;;20.47;33.97
10261;BME280;5175;42.606;23.388;2024-03-23T13:03:07;93354.31;;;20.49;31.00
10261;BME280;5175;42.606;23.388;2024-03-23T13:05:33;93331.63;;;20.57;33.05
10261;BME280;5175;42.606;23.388;2024-03-23T13:07:59;93340.47;;;20.54;31.51
10261;BME280;5175;42.606;23.388;2024-03-23T13:10:27;93333.13;;;21.05;33.68
10261;BME280;5175;42.606;23.388;2024-03-23T13:12:53;93344.56;;;20.32;30.23
10261;BME280;5175;42.606;23.388;2024-03-23T13:15:19;93339.44;;;19.56;31.07
10261;BME280;5175;42.606;23.388;2024-03-23T13:17:46;93336.28;;;19.82;31.47
10261;BME280;5175;42.606;23.388;2024-03-23T13:20:11;93326.66;;;20.28;30.69
10261;BME280;5175;42.606;23.388;2024-03-23T13:22:40;93327.25;;;20.37;29.23
10261;BME280;5175;42.606;23.388;2024-03-23T13:25:06;93319.66;;;20.58;31.30
10261;BME280;5175;42.606;23.388;2024-03-23T13:27:35;93316.63;;;20.44;31.23
10261;BME280;5175;42.606;23.388;2024-03-23T13:30:00;93313.00;;;20.71;30.41
10261;BME280;5175;42.606;23.388;2024-03-23T13:32:29;93319.91;;;20.69;29.79
10261;BME280;5175;42.606;23.388;2024-03-23T13:34:55;93317.34;;;20.76;28.85
10261;BME280;5175;42.606;23.388;2024-03-23T13:37:21;93316.72;;;20.98;28.12
10261;BME280;5175;42.606;23.388;2024-03-23T13:39:47;93315.72;;;21.06;28.93
10261;BME280;5175;42.606;23.388;2024-03-23T13:42:14;93312.50;;;21.35;27.12
10261;BME280;5175;42.606;23.388;2024-03-23T13:44:42;93311.28;;;21.33;27.50
10261;BME280;5175;42.606;23.388;2024-03-23T13:47:09;93303.91;;;20.98;28.52
10261;BME280;5175;42.606;23.388;2024-03-23T13:49:35;93310.72;;;21.24;27.13
10261;BME280;5175;42.606;23.388;2024-03-23T13:52:02;93299.75;;;21.39;29.78
10261;BME280;5175;42.606;23.388;2024-03-23T13:54:28;93288.25;;;21.84;29.45
10261;BME280;5175;42.606;23.388;2024-03-23T13:56:55;93291.63;;;21.77;25.97